Time;durP1;ratioP1;P1;durP2;ratioP2;P2;SDS_P1;SDS_P2;PMS_P1;PMS_P2;Temp;Humidity;BMP_temperature;BMP_pressure;BME280_temperature;BME280_humidity;BME280_pressure;Samples;Min_cycle;Max_cycle;Signal;HPM_P1;HPM_P2
2023/06/11 00:00:04;;;;;;;6.00;5.50;;;;;;;18.73;71.67;94343.28;5112976;28;20256;-69
2023/06/11 00:02:33;;;;;;;5.60;5.20;;;;;;;18.72;71.59;94348.06;5113963;28;20180;-69
2023/06/11 00:05:03;;;;;;;5.75;5.22;;;;;;;18.72;71.66;94350.09;5113770;28;20200;-70
2023/06/11 00:07:32;;;;;;;5.88;5.38;;;;;;;18.70;72.01;94349.66;5113795;28;20210;-69
2023/06/11 00:09:59;;;;;;;5.18;4.70;;;;;;;18.69;71.65;94348.88;5112594;28;20291;-70
2023/06/11 00:12:27;;;;;;;5.72;5.22;;;;;;;18.71;72.02;94348.50;5112980;28;20192;-70
2023/06/11 00:14:56;;;;;;;6.07;5.47;;;;;;;18.68;71.46;94357.69;5113414;28;20207;-69
2023/06/11 00:17:24;;;;;;;5.40;4.90;;;;;;;18.68;71.96;94347.31;5113870;28;20525;-69
2023/06/11 00:19:52;;;;;;;6.43;5.55;;;;;;;18.66;72.62;94344.13;5113642;28;20777;-69
2023/06/11 00:22:26;;;;;;;6.45;5.18;;;;;;;18.63;72.32;94347.81;5112988;28;20254;-70
2023/06/11 00:24:56;;;;;;;5.38;4.88;;;;;;;18.59;72.36;94349.03;5112392;28;20235;-70
2023/06/11 00:27:24;;;;;;;5.68;5.18;;;;;;;18.53;73.11;94349.53;5117132;28;20175;-70
2023/06/11 00:29:55;;;;;;;5.85;5.22;;;;;;;18.44;73.67;94345.69;5116638;28;20629;-69
2023/06/11 00:32:27;;;;;;;7.43;5.57;;;;;;;18.39;73.68;94351.75;5116489;28;20288;-69
2023/06/11 00:34:56;;;;;;;7.75;5.65;;;;;;;18.29;73.81;94359.84;5117446;28;20235;-69
2023/06/11 00:37:23;;;;;;;6.15;5.65;;;;;;;18.21;74.29;94358.34;5116318;28;20192;-69
2023/06/11 00:39:51;;;;;;;6.80;5.35;;;;;;;18.18;74.38;94361.19;5116047;28;20643;-69
2023/06/11 00:42:19;;;;;;;6.40;5.63;;;;;;;18.18;74.88;94364.00;5116226;28;20596;-69
2023/06/11 00:44:48;;;;;;;6.00;5.40;;;;;;;18.17;74.86;94354.03;5117179;28;20176;-69
2023/06/11 00:47:16;;;;;;;5.93;5.43;;;;;;;18.18;74.74;94358.41;5116866;28;20188;-70
2023/06/11 00:49:45;;;;;;;5.60;5.10;;;;;;;18.18;74.88;94353.63;5115306;28;20200;-69
2023/06/11 00:52:16;;;;;;;5.57;5.07;;;;;;;18.15;74.59;94357.22;5116877;28;20194;-69
2023/06/11 00:54:44;;;;;;;5.85;5.43;;;;;;;18.11;75.15;94347.34;5115582;28;20223;-69
2023/06/11 00:57:12;;;;;;;6.20;5.60;;;;;;;18.10;75.44;94354.13;5115544;28;20215;-69
2023/06/11 00:59:41;;;;;;;5.85;5.10;;;;;;;18.11;75.15;94356.50;5117067;28;20245;-69
2023/06/11 01:02:21;;;;;;;5.68;5.18;;;;;;;18.12;75.35;94357.28;5116128;28;20206;-69
2023/06/11 01:04:53;;;;;;;6.93;5.50;;;;;;;18.04;75.25;94362.16;5115791;28;20223;-70
2023/06/11 01:07:23;;;;;;;5.95;5.45;;;;;;;17.98;75.54;94350.69;5116927;28;20183;-70
2023/06/11 01:09:51;;;;;;;5.85;5.25;;;;;;;17.99;76.19;94363.44;5115778;28;20218;-69
2023/06/11 01:12:18;;;;;;;5.97;5.30;;;;;;;18.00;76.08;94365.00;5116512;28;20195;-69
2023/06/11 01:14:46;;;;;;;5.68;5.18;;;;;;;17.98;75.60;94363.84;5115655;28;20212;-70
2023/06/11 01:17:22;;;;;;;7.30;5.50;;;;;;;17.92;75.28;94362.72;5115180;28;20220;-70
2023/06/11 01:20:12;;;;;;;7.05;5.55;;;;;;;17.85;75.41;94351.66;5115701;28;20336;-70
2023/06/11 01:23:04;;;;;;;6.20;5.70;;;;;;;17.85;75.92;94352.44;5116488;28;20256;-69
2023/06/11 01:25:39;;;;;;;5.72;5.03;;;;;;;17.87;75.65;94354.84;5115295;28;20239;-69
2023/06/11 01:28:16;;;;;;;6.03;5.22;;;;;;;17.86;75.72;94356.81;5116226;28;20190;-69
2023/06/11 01:30:49;;;;;;;6.05;5.45;;;;;;;17.82;76.04;94346.91;5115987;28;20203;-69
2023/06/11 01:33:18;;;;;;;5.68;5.10;;;;;;;17.78;76.23;94349.75;5115774;28;20210;-69
2023/06/11 01:35:48;;;;;;;5.93;5.25;;;;;;;17.73;76.15;94355.75;5116170;27;20307;-69
2023/06/11 01:38:21;;;;;;;5.55;5.13;;;;;;;17.70;76.27;94351.00;5114787;28;20207;-69
2023/06/11 01:40:49;;;;;;;6.00;5.45;;;;;;;17.72;76.29;94351.38;5115991;28;20192;-70
2023/06/11 01:43:17;;;;;;;5.97;5.40;;;;;;;17.73;76.48;94348.19;5115856;28;20176;-69
2023/06/11 01:45:45;;;;;;;9.07;5.32;;;;;;;17.78;76.65;94347.75;5114757;28;20539;-69
2023/06/11 01:48:16;;;;;;;5.97;5.38;;;;;;;17.80;76.71;94350.13;5115851;28;20443;-69
2023/06/11 01:50:45;;;;;;;6.15;5.60;;;;;;;17.82;76.70;94353.28;5115666;28;20200;-70
2023/06/11 01:53:13;;;;;;;6.00;5.35;;;;;;;17.77;76.37;94357.31;5114390;28;20692;-69
2023/06/11 01:55:42;;;;;;;5.78;5.28;;;;;;;17.73;76.39;94355.75;5114832;28;20563;-69
2023/06/11 01:58:12;;;;;;;5.82;5.32;;;;;;;17.72;76.83;94363.34;5114821;28;20180;-70
2023/06/11 02:00:41;;;;;;;6.53;5.10;;;;;;;17.69;76.45;94360.59;5114605;28;20207;-69
2023/06/11 02:03:09;;;;;;;7.05;5.75;;;;;;;17.65;76.32;94368.22;5115469;28;20241;-69
2023/06/11 02:05:38;;;;;;;6.18;5.45;;;;;;;17.63;76.29;94371.41;5114508;28;20219;-69
2023/06/11 02:08:06;;;;;;;7.50;6.07;;;;;;;17.66;76.62;94353.06;5114254;28;20642;-69
2023/06/11 02:10:36;;;;;;;6.07;5.47;;;;;;;17.66;76.54;94359.41;5114714;28;20237;-69
2023/06/11 02:13:04;;;;;;;9.60;5.47;;;;;;;17.70;76.75;94362.94;5114281;28;20200;-69
2023/06/11 02:15:32;;;;;;;6.57;5.50;;;;;;;17.75;77.23;94370.06;5114446;28;20227;-69
2023/06/11 02:18:04;;;;;;;5.97;5.47;;;;;;;17.78;76.71;94361.69;5115239;28;20241;-70
2023/06/11 02:20:32;;;;;;;8.90;5.60;;;;;;;17.82;76.41;94369.22;5114814;28;20589;-69
2023/06/11 02:23:02;;;;;;;5.68;5.20;;;;;;;17.82;77.02;94367.22;5113627;28;20619;-69
2023/06/11 02:25:30;;;;;;;6.20;5.60;;;;;;;17.78;76.62;94361.69;5114088;28;20240;-69
2023/06/11 02:27:59;;;;;;;6.50;5.90;;;;;;;17.77;76.54;94362.91;5114170;28;20203;-69
2023/06/11 02:30:25;;;;;;;5.57;5.07;;;;;;;17.75;76.83;94368.09;5114195;28;20203;-69
2023/06/11 02:32:56;;;;;;;5.93;5.43;;;;;;;17.74;76.50;94363.69;5114078;28;20200;-70
2023/06/11 02:35:25;;;;;;;5.82;5.20;;;;;;;17.75;76.33;94353.31;5114963;28;20191;-69
2023/06/11 02:37:54;;;;;;;5.95;5.35;;;;;;;17.75;76.52;94367.28;5114002;28;20198;-69
2023/06/11 02:40:22;;;;;;;5.60;5.10;;;;;;;17.78;76.47;94360.91;5096901;28;20204;-69
2023/06/11 02:42:50;;;;;;;5.68;5.18;;;;;;;17.80;76.33;94366.88;5115174;28;20180;-69
2023/06/11 02:45:17;;;;;;;5.97;5.47;;;;;;;17.79;76.20;94368.03;5113816;28;20199;-70
2023/06/11 02:47:45;;;;;;;5.93;5.40;;;;;;;17.75;76.21;94361.69;5114298;28;20623;-69
2023/06/11 02:50:16;;;;;;;5.75;5.25;;;;;;;17.75;76.51;94362.50;5114638;28;20184;-69
2023/06/11 02:52:45;;;;;;;5.57;5.07;;;;;;;17.78;76.87;94355.31;5114123;28;20240;-69
2023/06/11 02:55:13;;;;;;;6.18;5.57;;;;;;;17.79;77.02;94348.53;5114362;28;20235;-70
2023/06/11 02:57:39;;;;;;;5.30;4.80;;;;;;;17.80;76.68;94356.50;5114710;28;20180;-69
2023/06/11 03:00:10;;;;;;;6.93;5.50;;;;;;;17.82;76.39;94364.44;5114629;28;20199;-69
2023/06/11 03:02:38;;;;;;;6.28;5.72;;;;;;;17.85;76.44;94363.59;5113644;28;20192;-70
2023/06/11 03:05:07;;;;;;;5.47;4.97;;;;;;;17.85;76.05;94362.81;5114639;28;20549;-69
2023/06/11 03:07:35;;;;;;;6.10;5.55;;;;;;;17.87;76.65;94363.19;5113448;28;20206;-69
2023/06/11 03:10:08;;;;;;;5.47;5.00;;;;;;;17.86;76.49;94367.19;5113579;28;20200;-70
2023/06/11 03:12:36;;;;;;;5.50;5.00;;;;;;;17.86;76.67;94367.97;5113230;28;20191;-70
2023/06/11 03:15:05;;;;;;;5.63;5.13;;;;;;;17.87;76.79;94366.00;5113310;28;20603;-70
2023/06/11 03:17:33;;;;;;;5.97;5.40;;;;;;;17.88;76.84;94359.19;5113418;28;20206;-69
2023/06/11 03:20:01;;;;;;;5.90;4.93;;;;;;;17.89;76.41;94369.94;5113583;28;20200;-70
2023/06/11 03:22:29;;;;;;;5.60;5.03;;;;;;;17.89;75.62;94364.34;5114320;28;20195;-70
2023/06/11 03:24:58;;;;;;;5.28;4.80;;;;;;;17.91;75.74;94370.31;5112976;28;20567;-70
2023/06/11 03:27:28;;;;;;;5.05;4.65;;;;;;;17.93;75.57;94369.88;5113260;28;20232;-69
2023/06/11 03:29:57;;;;;;;6.88;6.05;;;;;;;17.92;75.46;94371.09;5113517;28;20200;-70
2023/06/11 03:32:26;;;;;;;7.53;5.63;;;;;;;17.87;75.80;94377.94;5114429;28;20214;-70
2023/06/11 03:34:56;;;;;;;6.53;5.82;;;;;;;17.85;75.98;94383.13;5113231;28;20231;-69
2023/06/11 03:37:24;;;;;;;6.55;5.85;;;;;;;17.82;75.90;94389.53;5114317;28;20251;-70
2023/06/11 03:39:52;;;;;;;7.72;5.80;;;;;;;17.85;76.22;94393.50;5114058;28;20620;-70
2023/06/11 03:42:20;;;;;;;6.20;5.22;;;;;;;17.84;76.26;94397.50;5112937;28;20665;-70
2023/06/11 03:44:56;;;;;;;6.07;5.30;;;;;;;17.80;76.02;94403.13;5114221;28;20194;-70
2023/06/11 03:47:24;;;;;;;5.55;5.03;;;;;;;17.79;76.17;94399.53;5113038;28;20384;-70
2023/06/11 03:49:52;;;;;;;5.45;5.03;;;;;;;17.81;76.48;94410.28;5112818;28;20282;-70
2023/06/11 03:52:20;;;;;;;5.47;5.07;;;;;;;17.79;76.37;94399.53;5112888;28;20203;-69
2023/06/11 03:54:48;;;;;;;5.80;5.05;;;;;;;17.79;76.29;94395.94;5113015;28;20199;-70
2023/06/11 03:57:18;;;;;;;6.03;5.43;;;;;;;17.83;75.69;94393.09;5113046;28;20208;-69
2023/06/11 03:59:47;;;;;;;5.43;5.00;;;;;;;17.85;75.29;94399.06;5113991;28;20207;-70
2023/06/11 04:02:19;;;;;;;5.32;4.85;;;;;;;17.88;74.90;94398.25;5117602;28;20219;-70
2023/06/11 04:04:47;;;;;;;5.65;5.18;;;;;;;17.91;74.58;94398.22;5117035;28;20188;-69
2023/06/11 04:07:15;;;;;;;5.22;4.70;;;;;;;17.93;74.76;94397.78;5117025;28;20210;-69
2023/06/11 04:09:44;;;;;;;5.18;4.68;;;;;;;17.94;74.32;94393.81;5117809;28;20180;-68
2023/06/11 04:12:12;;;;;;;5.38;4.88;;;;;;;17.95;74.13;94398.97;5116978;28;20210;-69
2023/06/11 04:14:40;;;;;;;5.30;4.90;;;;;;;17.97;74.13;94396.56;5117601;28;20595;-69
2023/06/11 04:17:08;;;;;;;5.38;4.90;;;;;;;17.98;73.58;94394.56;5116463;28;20590;-69
2023/06/11 04:19:37;;;;;;;5.60;5.10;;;;;;;17.97;73.34;94393.75;5116916;28;20212;-70
2023/06/11 04:22:05;;;;;;;5.50;5.00;;;;;;;17.98;73.13;94388.97;5116862;28;20191;-69
2023/06/11 04:24:33;;;;;;;5.28;4.50;;;;;;;17.97;73.20;94388.19;5116240;28;20642;-69
2023/06/11 04:27:01;;;;;;;6.90;4.93;;;;;;;18.00;73.90;94398.47;5116290;28;20199;-69
2023/06/11 04:29:30;;;;;;;6.50;4.90;;;;;;;18.04;74.16;94395.66;5117264;28;20196;-70
2023/06/11 04:32:01;;;;;;;5.70;5.20;;;;;;;18.05;73.62;94394.47;5117070;28;20562;-71
2023/06/11 04:34:30;;;;;;;5.97;5.43;;;;;;;18.06;73.97;94392.47;5117507;28;20176;-71
2023/06/11 04:36:59;;;;;;;5.65;5.07;;;;;;;18.07;74.38;94392.03;5117651;28;20219;-70
2023/06/11 04:39:27;;;;;;;4.82;4.43;;;;;;;18.07;74.09;94380.88;5116837;28;20199;-69
2023/06/11 04:41:58;;;;;;;5.95;5.00;;;;;;;18.08;73.03;94388.03;5117147;28;20190;-70
2023/06/11 04:44:27;;;;;;;5.50;5.00;;;;;;;18.11;73.49;94384.41;5117103;28;20237;-72
2023/06/11 04:46:57;;;;;;;5.40;4.90;;;;;;;18.13;73.24;94390.38;5115795;28;20230;-70
2023/06/11 04:49:28;;;;;;;5.45;4.90;;;;;;;18.12;72.99;94382.41;5116011;28;20192;-70
2023/06/11 04:51:58;;;;;;;6.60;4.85;;;;;;;18.11;73.34;94383.63;5115937;28;20191;-70
2023/06/11 04:54:31;;;;;;;4.93;4.63;;;;;;;18.09;72.63;94389.63;5116214;28;20192;-72
2023/06/11 04:57:01;;;;;;;5.35;4.85;;;;;;;18.09;72.80;94384.03;5116959;28;20517;-70
2023/06/11 04:59:30;;;;;;;5.43;5.03;;;;;;;18.11;72.59;94386.41;5116941;28;20180;-70
2023/06/11 05:01:58;;;;;;;4.90;4.50;;;;;;;18.09;71.86;94391.63;5115982;28;20196;-70
2023/06/11 05:04:27;;;;;;;5.72;5.18;;;;;;;18.08;71.50;94385.22;5115939;28;20192;-70
2023/06/11 05:07:00;;;;;;;6.65;5.05;;;;;;;18.09;71.38;94391.63;5116730;28;20234;-70
2023/06/11 05:09:28;;;;;;;5.28;4.85;;;;;;;18.11;72.24;94387.19;5116166;28;20197;-70
2023/06/11 05:11:57;;;;;;;5.30;4.90;;;;;;;18.16;72.12;94386.75;5115390;28;20203;-70
2023/06/11 05:14:25;;;;;;;5.43;4.97;;;;;;;18.19;72.23;94390.69;5116315;28;20184;-70
2023/06/11 05:16:52;;;;;;;5.10;4.70;;;;;;;18.21;71.70;94391.06;5115514;28;20218;-70
2023/06/11 05:19:20;;;;;;;5.50;5.00;;;;;;;18.22;71.98;94390.63;5115429;28;20207;-70
2023/06/11 05:21:47;;;;;;;5.10;4.70;;;;;;;18.25;71.98;94386.22;5115495;28;20200;-70
2023/06/11 05:24:19;;;;;;;4.45;4.00;;;;;;;18.25;70.67;94392.59;5115112;28;20191;-70
2023/06/11 05:26:49;;;;;;;4.18;3.88;;;;;;;18.28;70.20;94396.56;5115525;28;20195;-71
2023/06/11 05:29:19;;;;;;;5.35;4.25;;;;;;;18.30;70.20;94396.94;5115026;28;20219;-70
2023/06/11 05:31:47;;;;;;;5.03;4.30;;;;;;;18.33;70.53;94406.47;5115955;28;20600;-70
2023/06/11 05:34:17;;;;;;;4.18;3.80;;;;;;;18.37;70.59;94407.19;5115246;28;20195;-71
2023/06/11 05:36:48;;;;;;;4.28;3.80;;;;;;;18.41;70.86;94410.72;5116393;28;20218;-70
2023/06/11 05:39:16;;;;;;;4.70;4.30;;;;;;;18.43;70.12;94408.31;5114915;28;20286;-71
2023/06/11 05:41:44;;;;;;;4.38;4.05;;;;;;;18.45;70.16;94403.91;5116010;28;20212;-71
2023/06/11 05:44:14;;;;;;;4.90;3.90;;;;;;;18.47;69.73;94404.25;5115759;28;20182;-70
2023/06/11 05:46:42;;;;;;;4.82;4.43;;;;;;;18.49;69.56;94412.22;5116105;28;20187;-70
2023/06/11 05:49:10;;;;;;;4.32;3.95;;;;;;;18.53;68.78;94418.56;5115856;28;20191;-71
2023/06/11 05:51:38;;;;;;;4.85;4.43;;;;;;;18.53;68.85;94408.19;5115516;28;20184;-71
2023/06/11 05:54:07;;;;;;;4.40;4.00;;;;;;;18.57;69.21;94421.31;5115853;28;20188;-71
2023/06/11 05:56:35;;;;;;;4.93;4.40;;;;;;;18.58;68.90;94412.50;5115627;28;20314;-70
2023/06/11 05:59:02;;;;;;;4.68;4.28;;;;;;;18.59;68.91;94419.69;5115977;28;20202;-70
2023/06/11 06:01:33;;;;;;;4.60;4.20;;;;;;;18.63;69.57;94417.63;5115692;28;20188;-69
2023/06/11 06:04:00;;;;;;;4.70;4.18;;;;;;;18.68;69.74;94414.34;5115398;28;20188;-71
2023/06/11 06:06:29;;;;;;;4.85;4.22;;;;;;;18.69;69.17;94409.53;5115863;28;20180;-71
2023/06/11 06:08:59;;;;;;;6.45;5.18;;;;;;;18.74;69.21;94415.50;5115475;28;20180;-71
2023/06/11 06:11:27;;;;;;;4.55;4.13;;;;;;;18.80;69.08;94409.41;5115344;28;20234;-70
2023/06/11 06:13:57;;;;;;;5.30;4.80;;;;;;;18.84;69.37;94415.75;5115212;28;20179;-71
2023/06/11 06:16:28;;;;;;;4.95;4.55;;;;;;;18.89;70.03;94406.91;5114227;28;20230;-70
2023/06/11 06:18:57;;;;;;;5.18;4.68;;;;;;;18.91;70.19;94413.63;5114420;28;20591;-70
2023/06/11 06:21:26;;;;;;;5.60;5.10;;;;;;;18.95;70.04;94411.59;5114258;28;20198;-70
2023/06/11 06:23:54;;;;;;;5.30;4.88;;;;;;;18.96;69.26;94415.19;5113704;28;20346;-70
2023/06/11 06:26:24;;;;;;;5.10;4.70;;;;;;;18.97;69.43;94414.75;5113641;28;20230;-69
2023/06/11 06:28:55;;;;;;;4.85;4.43;;;;;;;19.03;68.94;94419.84;5115425;28;20241;-69
2023/06/11 06:31:27;;;;;;;5.82;5.32;;;;;;;19.06;69.03;94414.19;5113914;28;20195;-70
2023/06/11 06:33:58;;;;;;;6.03;4.78;;;;;;;19.13;69.42;94421.69;5115096;28;20191;-69
2023/06/11 06:36:28;;;;;;;5.20;4.78;;;;;;;19.18;68.74;94419.22;5114294;28;20218;-70
2023/06/11 06:38:56;;;;;;;5.07;4.68;;;;;;;19.20;67.98;94416.75;5114977;28;20195;-70
2023/06/11 06:41:24;;;;;;;5.07;4.60;;;;;;;19.21;67.77;94414.78;5113935;28;20207;-70
2023/06/11 06:43:52;;;;;;;5.10;4.70;;;;;;;19.24;68.21;94413.91;5115023;28;20177;-70
2023/06/11 06:46:20;;;;;;;6.85;5.38;;;;;;;19.25;68.44;94407.13;5114758;28;20191;-69
2023/06/11 06:48:50;;;;;;;5.65;4.63;;;;;;;19.28;68.88;94406.28;5114799;28;20195;-70
2023/06/11 06:51:20;;;;;;;6.63;5.40;;;;;;;19.32;68.84;94412.59;5113646;28;20199;-70
2023/06/11 06:53:48;;;;;;;5.72;5.10;;;;;;;19.37;69.01;94403.72;5114668;28;20211;-70
2023/06/11 06:56:16;;;;;;;5.65;5.05;;;;;;;19.43;69.52;94412.41;5114536;28;20198;-70
2023/06/11 06:58:44;;;;;;;5.88;5.28;;;;;;;19.44;68.93;94405.59;5114320;28;20190;-69
2023/06/11 07:01:12;;;;;;;5.32;4.90;;;;;;;19.46;68.89;94405.94;5114541;28;20191;-70
2023/06/11 07:03:41;;;;;;;5.15;4.70;;;;;;;19.47;69.20;94411.13;5114547;28;20183;-70
2023/06/11 07:06:09;;;;;;;6.85;5.38;;;;;;;19.48;68.98;94403.53;5113614;28;20240;-69
2023/06/11 07:08:40;;;;;;;6.88;5.60;;;;;;;19.51;68.85;94404.69;5113620;28;20192;-69
2023/06/11 07:11:08;;;;;;;6.50;5.90;;;;;;;19.54;68.90;94401.81;5113545;28;20187;-70
2023/06/11 07:13:37;;;;;;;5.80;5.20;;;;;;;19.58;68.40;94396.97;5114666;28;20191;-70
2023/06/11 07:16:06;;;;;;;6.35;5.63;;;;;;;19.64;68.97;94397.25;5113326;28;20204;-70
2023/06/11 07:18:36;;;;;;;6.97;6.25;;;;;;;19.72;70.13;94401.53;5113381;28;20223;-70
2023/06/11 07:21:03;;;;;;;7.45;6.35;;;;;;;19.79;69.09;94400.59;5114140;28;20259;-70
2023/06/11 07:23:32;;;;;;;6.38;5.78;;;;;;;19.83;68.86;94398.53;5113299;28;20195;-69
2023/06/11 07:26:02;;;;;;;7.78;5.68;;;;;;;19.87;68.26;94400.03;5114276;28;20281;-72
2023/06/11 07:28:30;;;;;;;6.35;5.85;;;;;;;19.91;68.06;94391.56;5114072;28;20176;-71
2023/06/11 07:31:17;;;;;;;6.22;5.63;;;;;;;19.95;68.28;94397.88;5114215;28;20188;-71
2023/06/11 07:33:47;;;;;;;7.22;5.97;;;;;;;19.96;67.00;94394.66;5114133;28;20195;-71
2023/06/11 07:36:16;;;;;;;6.15;5.65;;;;;;;20.00;65.79;94391.00;5115114;28;20208;-70
2023/06/11 07:38:44;;;;;;;8.25;5.95;;;;;;;20.03;64.96;94387.34;5118256;28;20287;-71
2023/06/11 07:41:18;;;;;;;6.35;5.85;;;;;;;20.08;65.72;94393.25;5117388;28;20191;-71
2023/06/11 07:43:48;;;;;;;6.57;5.97;;;;;;;20.12;65.57;94384.78;5118066;28;20624;-72
2023/06/11 07:46:16;;;;;;;7.05;6.07;;;;;;;20.17;65.32;94393.44;5118366;28;20188;-71
2023/06/11 07:48:47;;;;;;;6.78;6.00;;;;;;;20.18;65.71;94386.59;5117440;28;20200;-71
2023/06/11 07:51:20;;;;;;;7.00;6.22;;;;;;;20.25;66.11;94384.88;5117339;28;20203;-70
2023/06/11 07:53:46;;;;;;;6.45;5.80;;;;;;;20.30;65.54;94385.19;5116983;28;20572;-71
2023/06/11 07:56:16;;;;;;;6.65;6.05;;;;;;;20.35;65.81;94383.88;5117842;28;20191;-71
2023/06/11 07:58:43;;;;;;;7.18;6.47;;;;;;;20.39;64.99;94374.16;5117949;28;20231;-71
2023/06/11 08:01:10;;;;;;;7.15;6.43;;;;;;;20.38;63.95;94378.19;5117839;28;20187;-71
2023/06/11 08:03:39;;;;;;;7.50;6.70;;;;;;;20.40;63.79;94383.34;5117831;28;20191;-71
2023/06/11 08:06:07;;;;;;;8.02;6.20;;;;;;;20.38;62.70;94380.22;5117815;28;20196;-70
2023/06/11 08:08:36;;;;;;;6.97;6.38;;;;;;;20.41;62.42;94373.75;5116987;28;20290;-72
2023/06/11 08:11:06;;;;;;;7.43;6.72;;;;;;;20.47;62.96;94376.81;5116837;28;20195;-71
2023/06/11 08:13:38;;;;;;;8.60;6.75;;;;;;;20.52;63.24;94379.94;5116962;28;20294;-73
2023/06/11 08:16:08;;;;;;;6.75;5.70;;;;;;;20.67;63.71;94375.59;5117718;28;20191;-72
2023/06/11 08:18:36;;;;;;;6.32;5.80;;;;;;;20.81;61.44;94379.28;5117323;28;20211;-72
2023/06/11 08:21:05;;;;;;;6.72;5.78;;;;;;;20.91;62.00;94375.44;5116235;28;20590;-71
2023/06/11 08:23:38;;;;;;;7.25;6.55;;;;;;;20.99;61.51;94382.47;5116615;28;20245;-73
2023/06/11 08:26:12;;;;;;;6.78;6.15;;;;;;;21.11;59.46;94376.16;5116134;28;20242;-72
2023/06/11 08:28:41;;;;;;;6.28;5.65;;;;;;;21.18;60.55;94374.41;5116516;28;20187;-73
2023/06/11 08:31:12;;;;;;;6.93;6.22;;;;;;;21.11;59.21;94370.53;5116425;28;20203;-73
2023/06/11 08:33:40;;;;;;;6.82;6.10;;;;;;;21.20;61.16;94372.72;5099179;28;20200;-72
2023/06/11 08:36:08;;;;;;;6.60;6.10;;;;;;;21.30;60.34;94374.47;5116762;28;20195;-72
2023/06/11 08:38:38;;;;;;;6.85;6.25;;;;;;;21.42;59.84;94361.00;5117526;28;20200;-71
2023/06/11 08:41:06;;;;;;;6.82;6.22;;;;;;;21.46;58.56;94367.28;5117407;28;20192;-71
2023/06/11 08:43:34;;;;;;;7.28;6.60;;;;;;;21.57;58.06;94365.81;5099392;28;20196;-72
2023/06/11 08:46:07;;;;;;;7.68;6.88;;;;;;;21.70;59.89;94363.06;5116477;28;20192;-73
2023/06/11 08:48:38;;;;;;;7.10;6.40;;;;;;;21.88;59.35;94376.59;5116032;28;20227;-72
2023/06/11 08:51:08;;;;;;;7.05;6.35;;;;;;;22.00;56.57;94369.47;5115928;28;20231;-71
2023/06/11 08:53:40;;;;;;;6.63;5.93;;;;;;;22.01;56.20;94369.03;5116669;28;20187;-72
2023/06/11 08:56:08;;;;;;;6.72;6.13;;;;;;;22.00;55.99;94364.63;5116032;28;20198;-72
2023/06/11 08:58:37;;;;;;;6.43;5.72;;;;;;;21.91;55.03;94361.69;5116515;28;20228;-73
2023/06/11 09:01:13;;;;;;;6.22;5.72;;;;;;;21.84;55.18;94359.06;5116829;28;20516;-72
2023/06/11 09:03:40;;;;;;;5.90;5.40;;;;;;;22.00;56.04;94367.44;5115849;28;20599;-71
2023/06/11 09:06:08;;;;;;;6.68;6.07;;;;;;;22.23;56.03;94365.63;5116796;28;20245;-71
2023/06/11 09:08:39;;;;;;;6.22;5.63;;;;;;;22.25;55.20;94357.53;5116882;28;20504;-72
2023/06/11 09:11:10;;;;;;;7.60;6.13;;;;;;;22.23;55.20;94345.97;5115761;28;20199;-73
2023/06/11 09:13:41;;;;;;;6.82;6.13;;;;;;;22.40;55.71;94350.25;5115759;28;20195;-72
2023/06/11 09:16:10;;;;;;;6.68;5.72;;;;;;;22.47;54.47;94340.84;5115560;28;20206;-73
2023/06/11 09:18:43;;;;;;;6.72;6.13;;;;;;;22.58;53.37;94344.09;5116416;28;20218;-71
2023/06/11 09:21:15;;;;;;;6.22;5.63;;;;;;;22.67;54.79;94341.44;5115606;28;20196;-72
2023/06/11 09:23:47;;;;;;;6.13;5.43;;;;;;;22.87;53.84;94338.38;5115327;28;20204;-71
2023/06/11 09:26:19;;;;;;;6.35;5.78;;;;;;;23.00;54.24;94342.00;5115765;28;20235;-71
2023/06/11 09:28:50;;;;;;;6.10;5.50;;;;;;;23.19;51.16;94336.59;5116131;28;20271;-72
2023/06/11 09:31:21;;;;;;;6.20;5.65;;;;;;;23.35;50.97;94338.47;5116108;28;20214;-72
2023/06/11 09:33:49;;;;;;;8.13;5.55;;;;;;;23.33;49.44;94333.28;5115042;28;20200;-72
2023/06/11 09:36:18;;;;;;;7.53;5.70;;;;;;;23.35;50.92;94327.19;5115041;28;20249;-72
2023/06/11 09:38:51;;;;;;;6.20;5.60;;;;;;;23.46;50.35;94336.09;5116059;28;20304;-72
2023/06/11 09:41:18;;;;;;;6.75;6.15;;;;;;;23.50;50.05;94329.09;5115806;28;20192;-72
2023/06/11 09:43:54;;;;;;;6.30;5.60;;;;;;;23.52;51.64;94328.63;5114904;28;20647;-72
2023/06/11 09:46:26;;;;;;;5.93;5.43;;;;;;;23.46;49.11;94328.44;5114993;28;20191;-73
2023/06/11 09:48:56;;;;;;;6.85;5.82;;;;;;;23.44;50.46;94324.50;5114837;28;20192;-72
2023/06/11 09:51:25;;;;;;;6.20;5.60;;;;;;;23.57;49.95;94330.06;5115936;28;20233;-72
2023/06/11 09:53:53;;;;;;;6.82;5.70;;;;;;;23.77;48.12;94322.94;5115843;28;20187;-72
2023/06/11 09:56:21;;;;;;;8.80;6.20;;;;;;;23.82;48.11;94332.03;5114915;28;20204;-72
2023/06/11 09:58:50;;;;;;;6.25;5.57;;;;;;;23.89;48.16;94324.13;5114633;28;20208;-73
2023/06/11 10:01:19;;;;;;;7.28;5.60;;;;;;;24.01;46.35;94322.50;5114606;28;20228;-71
2023/06/11 10:03:49;;;;;;;7.15;5.78;;;;;;;24.00;47.76;94313.28;5114702;28;20238;-72
2023/06/11 10:06:20;;;;;;;5.93;5.32;;;;;;;24.02;44.50;94327.66;5115560;28;20184;-71
2023/06/11 10:08:49;;;;;;;8.57;5.57;;;;;;;23.98;46.64;94315.75;5114586;28;20240;-72
2023/06/11 10:11:20;;;;;;;6.97;5.82;;;;;;;23.97;47.62;94319.03;5115081;28;20187;-72
2023/06/11 10:14:12;;;;;;;6.40;5.70;;;;;;;23.99;46.30;94308.09;5115473;28;20184;-72
2023/06/11 10:16:40;;;;;;;5.97;5.32;;;;;;;24.09;46.49;94311.75;5114306;28;20642;-72
2023/06/11 10:19:15;;;;;;;6.20;5.63;;;;;;;24.23;44.49;94306.38;5114169;28;20218;-72
2023/06/11 10:21:49;;;;;;;6.00;5.38;;;;;;;24.25;43.51;94305.91;5115341;28;20187;-72
2023/06/11 10:24:24;;;;;;;6.40;5.82;;;;;;;24.08;44.72;94302.53;5114768;28;20236;-72
2023/06/11 10:27:09;;;;;;;7.00;6.30;;;;;;;24.16;45.33;94286.16;5115188;28;20194;-72
2023/06/11 10:29:41;;;;;;;7.78;5.82;;;;;;;24.20;47.36;94292.44;5115169;28;20198;-71
2023/06/11 10:32:19;;;;;;;6.25;5.65;;;;;;;24.21;45.36;94280.69;5115111;28;20184;-72
2023/06/11 10:34:53;;;;;;;6.75;6.05;;;;;;;24.10;45.00;94282.34;5113989;28;20203;-72
2023/06/11 10:37:31;;;;;;;6.30;5.55;;;;;;;24.10;48.32;94269.03;5114765;28;20182;-73
2023/06/11 10:39:59;;;;;;;6.85;6.22;;;;;;;24.35;46.13;94281.38;5113691;28;20330;-72
2023/06/11 10:42:28;;;;;;;7.50;5.90;;;;;;;24.41;46.76;94283.19;5114858;28;20285;-72
2023/06/11 10:45:00;;;;;;;6.93;5.88;;;;;;;24.33;45.85;94276.22;5113612;28;20634;-73
2023/06/11 10:47:30;;;;;;;6.60;6.00;;;;;;;24.37;46.10;94276.88;5113520;28;20205;-73
2023/06/11 10:50:10;;;;;;;6.53;5.72;;;;;;;24.42;44.63;94269.88;5113825;28;20294;-72
2023/06/11 10:52:53;;;;;;;7.07;6.47;;;;;;;24.52;45.06;94282.00;5114718;28;20180;-72
2023/06/11 10:55:22;;;;;;;7.30;6.03;;;;;;;24.56;43.58;94279.81;5113482;28;20612;-73
2023/06/11 10:57:53;;;;;;;6.75;5.88;;;;;;;24.59;43.09;94276.84;5114617;28;20208;-73
2023/06/11 11:00:28;;;;;;;6.97;6.28;;;;;;;24.68;43.07;94276.88;5113762;28;20195;-72
2023/06/11 11:03:00;;;;;;;6.78;6.18;;;;;;;24.79;44.36;94267.19;5113765;28;20229;-72
2023/06/11 11:05:29;;;;;;;8.35;6.60;;;;;;;24.88;43.47;94262.38;5113755;28;20584;-72
2023/06/11 11:08:00;;;;;;;8.30;6.13;;;;;;;25.01;45.10;94262.25;5113661;28;20210;-71
2023/06/11 11:10:29;;;;;;;6.25;5.63;;;;;;;24.97;43.51;94261.63;5112966;28;20188;-71
2023/06/11 11:13:00;;;;;;;7.95;6.20;;;;;;;25.15;44.14;94263.72;5114476;28;20187;-71
2023/06/11 11:15:30;;;;;;;6.97;5.55;;;;;;;25.20;42.57;94263.91;5113576;28;20191;-73
2023/06/11 11:18:00;;;;;;;6.85;6.13;;;;;;;25.23;43.25;94259.34;5114376;28;20235;-72
2023/06/11 11:20:33;;;;;;;6.00;5.50;;;;;;;25.36;43.97;94267.69;5114493;28;20227;-72
2023/06/11 11:23:00;;;;;;;7.40;6.18;;;;;;;25.44;43.71;94260.47;5113598;28;20261;-72
2023/06/11 11:25:29;;;;;;;6.50;6.00;;;;;;;25.48;43.82;94257.50;5113835;28;20245;-72
2023/06/11 11:28:00;;;;;;;6.63;6.00;;;;;;;25.53;43.47;94256.84;5113578;28;20199;-71
2023/06/11 11:30:29;;;;;;;6.60;6.00;;;;;;;25.57;43.28;94247.00;5113328;28;20194;-71
2023/06/11 11:32:58;;;;;;;7.70;6.88;;;;;;;25.64;44.49;94251.56;5113476;28;20202;-72
2023/06/11 11:35:28;;;;;;;6.30;5.70;;;;;;;25.73;44.27;94245.09;5113253;28;20195;-71
2023/06/11 11:37:59;;;;;;;10.73;5.63;;;;;;;25.76;43.90;94252.63;5113850;28;20188;-72
2023/06/11 11:40:29;;;;;;;9.15;5.70;;;;;;;25.64;45.74;94255.16;5114434;28;20180;-72
2023/06/11 11:42:58;;;;;;;6.22;5.07;;;;;;;25.71;45.20;94262.53;5113031;28;20210;-72
2023/06/11 11:45:31;;;;;;;6.70;5.07;;;;;;;25.62;45.58;94266.13;5113198;28;20551;-72